Time;durP1;ratioP1;P1;durP2;ratioP2;P2;SDS_P1;SDS_P2;PMS_P1;PMS_P2;Temp;Humidity;BMP_temperature;BMP_pressure;BME280_temperature;BME280_humidity;BME280_pressure;Samples;Min_cycle;Max_cycle;Signal;HPM_P1;HPM_P2
2023/11/22 00:01:25;;;;;;;3.37;2.43;;;;;;;4.40;100.00;102783.28;6110305;28;20624;-73
2023/11/22 00:04:47;;;;;;;2.63;2.20;;;;;;;4.36;100.00;102794.16;6114002;28;20240;-72
2023/11/22 00:08:08;;;;;;;3.40;3.00;;;;;;;4.33;100.00;102799.56;6103873;28;20698;-72
2023/11/22 00:11:29;;;;;;;2.40;2.20;;;;;;;4.31;100.00;102799.63;6121861;28;20233;-72
2023/11/22 00:14:51;;;;;;;2.67;2.43;;;;;;;4.32;100.00;102801.38;6115546;28;20235;-71
2023/11/22 00:18:12;;;;;;;2.67;2.43;;;;;;;4.29;100.00;102797.94;6114694;28;20236;-72
2023/11/22 00:21:35;;;;;;;2.80;2.60;;;;;;;4.23;100.00;102798.13;6107250;28;20236;-73
2023/11/22 00:24:56;;;;;;;2.60;2.17;;;;;;;4.17;100.00;102788.53;6106243;28;20614;-73
2023/11/22 00:28:17;;;;;;;2.70;2.10;;;;;;;4.07;100.00;102782.59;6110920;28;20231;-73
2023/11/22 00:31:39;;;;;;;2.53;2.20;;;;;;;3.98;100.00;102777.53;6109412;28;20235;-73
2023/11/22 00:35:01;;;;;;;3.93;3.13;;;;;;;3.91;100.00;102789.34;6109128;28;20610;-73
2023/11/22 00:38:23;;;;;;;2.97;2.53;;;;;;;3.96;100.00;102786.53;6107390;28;20239;-73
2023/11/22 00:41:44;;;;;;;2.50;2.30;;;;;;;3.97;100.00;102789.13;6114244;28;20239;-73
2023/11/22 00:45:05;;;;;;;2.37;2.13;;;;;;;3.85;100.00;102801.97;6107798;28;20243;-73
2023/11/22 00:48:26;;;;;;;3.63;3.00;;;;;;;3.86;100.00;102825.03;6108769;28;20244;-73
2023/11/22 00:51:47;;;;;;;2.13;1.93;;;;;;;3.83;100.00;102828.69;6124023;28;20231;-73
2023/11/22 00:55:09;;;;;;;3.23;2.33;;;;;;;3.82;100.00;102829.59;6106456;28;20435;-72
2023/11/22 00:58:30;;;;;;;3.00;2.33;;;;;;;3.73;100.00;102842.34;6110791;28;20235;-73
2023/11/22 01:01:51;;;;;;;2.80;2.23;;;;;;;3.60;100.00;102856.94;6108649;28;20240;-72
2023/11/22 01:05:12;;;;;;;3.43;2.40;;;;;;;3.53;100.00;102866.91;6111029;28;20259;-72
2023/11/22 01:08:33;;;;;;;3.07;2.13;;;;;;;3.49;100.00;102864.34;6109876;28;20232;-72
2023/11/22 01:11:56;;;;;;;2.87;2.33;;;;;;;3.49;100.00;102865.25;6111766;28;20323;-73
2023/11/22 01:15:17;;;;;;;3.10;2.20;;;;;;;3.53;100.00;102868.69;6122484;28;20536;-72
2023/11/22 01:18:38;;;;;;;3.30;2.50;;;;;;;3.48;100.00;102855.50;6123799;28;20356;-73
2023/11/22 01:21:59;;;;;;;3.07;2.77;;;;;;;3.52;100.00;102857.16;6111202;28;20646;-72
2023/11/22 01:25:20;;;;;;;2.93;2.37;;;;;;;3.45;100.00;102844.91;6124060;28;20264;-73
2023/11/22 01:28:44;;;;;;;2.97;2.00;;;;;;;3.38;100.00;102848.66;6112754;28;20252;-73
2023/11/22 01:32:05;;;;;;;3.37;2.10;;;;;;;3.37;100.00;102849.59;6108354;28;20874;-73
2023/11/22 01:35:26;;;;;;;2.13;1.97;;;;;;;3.47;100.00;102858.19;6110094;28;20240;-73
2023/11/22 01:38:47;;;;;;;2.90;2.47;;;;;;;3.49;100.00;102859.91;6103384;28;20236;-73
2023/11/22 01:42:09;;;;;;;2.53;2.00;;;;;;;3.45;100.00;102860.91;6107511;28;20231;-73
2023/11/22 01:45:32;;;;;;;2.63;2.43;;;;;;;3.51;100.00;102857.19;6106926;28;20251;-73
2023/11/22 01:48:55;;;;;;;2.10;1.97;;;;;;;3.54;100.00;102859.78;6110273;28;20232;-73
2023/11/22 01:52:17;;;;;;;3.17;2.93;;;;;;;3.52;100.00;102867.84;6109742;28;20244;-73
2023/11/22 01:55:38;;;;;;;2.60;2.40;;;;;;;3.53;100.00;102874.91;6110354;28;20311;-73
2023/11/22 01:59:00;;;;;;;3.07;2.47;;;;;;;3.49;100.00;102875.03;6125917;28;20242;-73
2023/11/22 02:02:23;;;;;;;2.07;1.87;;;;;;;3.43;100.00;102862.75;6123596;28;20243;-73
2023/11/22 02:05:49;;;;;;;1.83;1.73;;;;;;;3.48;100.00;102862.63;6105520;28;20248;-72
2023/11/22 02:09:13;;;;;;;2.27;2.17;;;;;;;3.45;100.00;102860.03;6108310;28;20330;-72
2023/11/22 02:12:35;;;;;;;2.17;1.97;;;;;;;3.44;100.00;102850.31;6108896;28;20311;-73
2023/11/22 02:15:58;;;;;;;2.37;1.93;;;;;;;3.41;100.00;102851.25;6106650;28;20239;-73
2023/11/22 02:19:21;;;;;;;1.90;1.80;;;;;;;3.41;100.00;102858.38;6111030;28;20231;-73
2023/11/22 02:22:45;;;;;;;1.80;1.63;;;;;;;3.34;100.00;102865.66;6088286;28;20357;-73
2023/11/22 02:26:15;;;;;;;2.90;2.03;;;;;;;3.39;100.00;102877.06;6110506;28;20231;-72
2023/11/22 02:29:36;;;;;;;2.37;2.13;;;;;;;3.31;100.00;102879.06;6108417;28;20303;-72
2023/11/22 02:32:57;;;;;;;2.30;2.13;;;;;;;3.16;100.00;102893.69;6097464;28;20895;-72
2023/11/22 02:36:18;;;;;;;2.67;2.47;;;;;;;3.19;100.00;102892.72;6108510;28;20326;-72
2023/11/22 02:43:26;;;;;;;2.20;2.00;;;;;;;3.00;100.00;102902.94;6106583;28;20330;-72
2023/11/22 02:46:47;;;;;;;4.13;3.33;;;;;;;3.00;100.00;102912.75;6116786;28;20519;-72
2023/11/22 02:50:08;;;;;;;2.23;1.93;;;;;;;2.88;100.00;102911.25;6107333;28;20580;-72
2023/11/22 02:53:29;;;;;;;2.70;2.30;;;;;;;2.88;100.00;102918.38;6105186;28;20227;-72
2023/11/22 02:56:50;;;;;;;2.10;2.00;;;;;;;2.97;100.00;102921.69;6113076;28;20255;-72
2023/11/22 03:00:14;;;;;;;2.90;2.20;;;;;;;3.08;100.00;102916.09;6118982;28;20248;-72
2023/11/22 03:03:35;;;;;;;1.90;1.57;;;;;;;3.06;100.00;102923.25;6110124;28;20290;-73
2023/11/22 03:06:56;;;;;;;3.27;1.90;;;;;;;2.95;100.00;102923.53;6118769;28;20231;-72
2023/11/22 03:10:17;;;;;;;3.10;2.10;;;;;;;2.95;100.00;102933.28;6113382;28;21328;-71
2023/11/22 03:13:38;;;;;;;3.63;2.50;;;;;;;2.85;100.00;102929.97;6115809;28;20630;-72
2023/11/22 03:17:01;;;;;;;2.83;2.27;;;;;;;2.83;100.00;102929.16;6113269;28;20239;-71
2023/11/22 03:20:22;;;;;;;2.20;2.00;;;;;;;2.88;100.00;102937.03;6124478;28;20352;-72
2023/11/22 03:23:43;;;;;;;2.67;2.47;;;;;;;3.04;100.00;102936.63;6105194;28;20244;-72
2023/11/22 03:27:04;;;;;;;2.40;2.20;;;;;;;3.06;100.00;102937.47;6116788;28;20727;-72
2023/11/22 03:30:24;;;;;;;2.43;2.23;;;;;;;3.15;100.00;102942.53;6114537;28;20323;-72
2023/11/22 03:33:47;;;;;;;2.67;2.47;;;;;;;3.14;100.00;102940.81;6111357;28;20232;-73
2023/11/22 03:37:07;;;;;;;2.10;2.00;;;;;;;3.00;100.00;102953.56;6112923;28;20231;-72
2023/11/22 03:40:28;;;;;;;2.93;2.73;;;;;;;2.90;100.00;102945.84;6116972;28;20236;-72
2023/11/22 03:43:49;;;;;;;3.10;2.33;;;;;;;2.99;100.00;102959.81;6112974;28;20235;-73
2023/11/22 03:47:12;;;;;;;3.00;2.70;;;;;;;3.04;100.00;102957.06;6114174;28;20240;-73
2023/11/22 03:50:34;;;;;;;2.97;2.77;;;;;;;3.00;100.00;102955.38;6111274;28;20244;-72
2023/11/22 03:53:55;;;;;;;3.80;3.17;;;;;;;2.90;100.00;102959.19;6112802;28;20224;-72
2023/11/22 03:57:16;;;;;;;2.00;1.90;;;;;;;2.90;100.00;102962.69;6115196;28;20248;-73
2023/11/22 04:00:37;;;;;;;2.23;2.03;;;;;;;2.96;100.00;102967.88;6114121;28;20243;-72
2023/11/22 04:03:58;;;;;;;2.60;1.97;;;;;;;2.97;100.00;102972.31;6108131;28;20697;-71
2023/11/22 04:07:20;;;;;;;2.73;2.53;;;;;;;2.98;100.00;102971.38;6108903;28;20235;-72
2023/11/22 04:10:42;;;;;;;3.20;2.93;;;;;;;2.97;100.00;102969.63;6109586;28;20312;-72
2023/11/22 04:14:03;;;;;;;2.83;2.63;;;;;;;2.91;100.00;102984.88;6108398;28;20559;-72
2023/11/22 04:17:24;;;;;;;4.27;2.30;;;;;;;2.71;100.00;102984.47;6119904;28;20228;-71
2023/11/22 04:20:45;;;;;;;2.07;1.77;;;;;;;2.60;100.00;102973.19;6108582;28;20232;-72
2023/11/22 04:24:09;;;;;;;3.80;2.83;;;;;;;2.59;100.00;102964.31;6112695;28;20334;-71
2023/11/22 04:27:30;;;;;;;2.53;1.90;;;;;;;2.62;100.00;102953.59;6104835;28;20759;-73
2023/11/22 04:30:51;;;;;;;2.47;2.27;;;;;;;2.63;100.00;102965.13;6108874;28;20236;-72
2023/11/22 04:34:12;;;;;;;5.33;2.40;;;;;;;2.65;100.00;102958.84;6111372;28;20239;-72
2023/11/22 04:37:33;;;;;;;2.60;2.40;;;;;;;2.54;100.00;102952.91;6110706;28;20236;-73
2023/11/22 04:40:56;;;;;;;2.97;2.40;;;;;;;2.48;100.00;102957.47;6107656;28;20992;-72
2023/11/22 04:44:17;;;;;;;3.57;3.37;;;;;;;2.52;100.00;102961.81;6107832;28;20245;-73
2023/11/22 04:47:38;;;;;;;2.73;2.53;;;;;;;2.51;100.00;102955.63;6109516;28;20236;-73
2023/11/22 04:50:59;;;;;;;3.10;2.80;;;;;;;2.48;100.00;102955.72;6103148;28;20232;-72
2023/11/22 04:54:20;;;;;;;2.67;2.50;;;;;;;2.67;100.00;102970.34;6105020;28;20236;-73
2023/11/22 04:57:42;;;;;;;9.67;8.43;;;;;;;2.68;100.00;102955.25;6109621;28;20314;-72
2023/11/22 05:01:04;;;;;;;16.67;14.93;;;;;;;2.60;100.00;102967.84;6110338;28;20243;-73
2023/11/22 05:04:26;;;;;;;21.07;18.80;;;;;;;2.64;100.00;102966.88;6105627;28;20271;-73
2023/11/22 05:07:47;;;;;;;9.00;8.10;;;;;;;2.54;100.00;102960.00;6112215;28;20235;-73
2023/11/22 05:11:09;;;;;;;15.80;13.67;;;;;;;2.42;100.00;102967.34;6110187;28;20614;-72
2023/11/22 05:14:32;;;;;;;11.50;10.30;;;;;;;2.45;100.00;102966.41;6110750;28;20237;-73
2023/11/22 05:17:59;;;;;;;5.97;5.10;;;;;;;2.52;100.00;102972.47;6108481;28;20241;-73
2023/11/22 05:21:20;;;;;;;3.93;3.63;;;;;;;2.60;100.00;102978.50;6110243;28;20236;-72
2023/11/22 05:24:43;;;;;;;4.17;2.80;;;;;;;2.57;100.00;102975.88;6109311;28;20235;-72
2023/11/22 05:28:04;;;;;;;2.70;2.50;;;;;;;2.39;100.00;102988.72;6111802;28;20235;-73
2023/11/22 05:31:27;;;;;;;4.17;2.67;;;;;;;2.42;100.00;102999.28;6110661;28;20239;-73
2023/11/22 05:34:48;;;;;;;4.03;3.40;;;;;;;2.38;100.00;103013.56;6103958;28;20240;-72
2023/11/22 05:38:09;;;;;;;2.60;2.40;;;;;;;2.51;100.00;103021.28;6110184;28;20235;-72
2023/11/22 05:41:31;;;;;;;3.17;2.97;;;;;;;2.46;100.00;103028.50;6114183;28;20259;-72
2023/11/22 05:44:53;;;;;;;3.27;3.07;;;;;;;2.48;100.00;103022.25;6112556;28;20228;-72
2023/11/22 05:48:15;;;;;;;3.13;2.80;;;;;;;2.41;100.00;103010.84;6108012;28;20267;-73
2023/11/22 05:51:36;;;;;;;5.30;3.03;;;;;;;2.36;100.00;103004.72;6111127;28;20235;-73
2023/11/22 05:54:57;;;;;;;3.70;3.37;;;;;;;2.27;100.00;103009.38;6109325;28;20642;-72
2023/11/22 05:58:18;;;;;;;2.97;2.60;;;;;;;2.24;100.00;102998.78;6118135;28;20260;-72
2023/11/22 06:01:39;;;;;;;3.87;3.47;;;;;;;2.31;100.00;102995.09;6103710;28;20263;-72
2023/11/22 06:05:01;;;;;;;4.40;2.70;;;;;;;2.23;100.00;102991.72;6120642;28;20263;-72
2023/11/22 06:08:22;;;;;;;3.47;3.13;;;;;;;2.27;100.00;102998.75;6107354;28;20322;-72
2023/11/22 06:11:43;;;;;;;4.73;3.50;;;;;;;2.28;100.00;102998.69;6106438;28;20656;-72
2023/11/22 06:15:05;;;;;;;2.53;2.33;;;;;;;2.24;100.00;102983.69;6110356;28;20244;-72
2023/11/22 06:18:29;;;;;;;2.93;2.70;;;;;;;2.18;100.00;102983.84;6102134;28;20244;-71
2023/11/22 06:21:51;;;;;;;4.70;3.20;;;;;;;2.14;100.00;102982.16;6103261;28;20247;-71
2023/11/22 06:25:12;;;;;;;3.70;3.40;;;;;;;2.13;100.00;102975.06;6093530;28;20725;-70
2023/11/22 06:28:34;;;;;;;3.57;3.07;;;;;;;2.90;100.00;102980.47;6106513;28;20228;-71
2023/11/22 06:31:55;;;;;;;5.97;3.97;;;;;;;2.70;100.00;102994.25;6098663;28;20314;-70
2023/11/22 06:35:17;;;;;;;5.33;3.77;;;;;;;3.19;100.00;102991.31;6098166;28;20247;-69
2023/11/22 06:38:39;;;;;;;3.70;3.37;;;;;;;3.11;100.00;102975.50;6104729;28;20236;-70
2023/11/22 06:42:00;;;;;;;4.73;3.03;;;;;;;2.82;100.00;102985.09;6109145;28;20240;-69
2023/11/22 06:45:22;;;;;;;2.87;2.57;;;;;;;2.65;100.00;102976.63;6113069;28;20609;-69
2023/11/22 06:48:45;;;;;;;4.30;3.93;;;;;;;2.64;100.00;102983.72;6112862;28;20236;-70
2023/11/22 06:52:07;;;;;;;4.17;3.57;;;;;;;2.59;100.00;102985.59;6115520;28;20227;-69
2023/11/22 06:55:30;;;;;;;3.77;3.47;;;;;;;2.65;100.00;102989.94;6114225;28;20236;-69
2023/11/22 06:58:52;;;;;;;2.77;2.57;;;;;;;2.69;100.00;102992.47;6113106;28;20236;-70
2023/11/22 07:02:14;;;;;;;7.03;2.90;;;;;;;2.76;100.00;102988.78;6100984;28;20501;-70
2023/11/22 07:05:35;;;;;;;3.37;3.07;;;;;;;2.61;100.00;102972.28;6108397;28;20575;-71
2023/11/22 07:08:59;;;;;;;4.70;3.60;;;;;;;2.46;100.00;102968.19;6104946;28;20227;-71
2023/11/22 07:12:22;;;;;;;4.50;3.20;;;;;;;2.53;100.00;102974.22;6110026;28;20239;-70
2023/11/22 07:15:42;;;;;;;3.57;3.27;;;;;;;2.46;100.00;102983.25;6110913;28;20598;-70
2023/11/22 07:19:03;;;;;;;7.50;3.27;;;;;;;2.57;100.00;102990.09;6114212;28;20536;-70
2023/11/22 07:22:34;;;;;;;6.57;4.10;;;;;;;2.47;100.00;102996.53;6115093;28;20236;-71
2023/11/22 07:25:58;;;;;;;9.63;5.57;;;;;;;2.41;100.00;103002.88;6112378;28;20263;-70
2023/11/22 07:29:21;;;;;;;3.87;3.57;;;;;;;2.39;100.00;102994.03;6111465;28;20231;-70
2023/11/22 07:32:42;;;;;;;7.57;5.40;;;;;;;2.34;100.00;103003.88;6109410;28;20243;-70
2023/11/22 07:36:03;;;;;;;5.70;4.47;;;;;;;2.67;100.00;103004.09;6106143;28;20299;-70
2023/11/22 07:39:27;;;;;;;7.20;4.77;;;;;;;2.74;100.00;103001.25;6101495;28;20232;-70
2023/11/22 07:42:47;;;;;;;11.63;6.47;;;;;;;2.93;100.00;103015.03;6124909;28;20240;-71
2023/11/22 07:46:12;;;;;;;5.87;3.80;;;;;;;2.98;100.00;103021.97;6109820;28;20239;-71
2023/11/22 07:49:36;;;;;;;4.43;3.60;;;;;;;2.91;100.00;103028.38;6119235;28;20235;-70
2023/11/22 07:52:57;;;;;;;5.27;4.77;;;;;;;2.89;100.00;103045.31;6117719;28;20228;-70
2023/11/22 07:56:18;;;;;;;4.87;4.43;;;;;;;2.85;100.00;103056.94;6118104;28;20240;-71
2023/11/22 07:59:38;;;;;;;6.40;5.23;;;;;;;2.91;100.00;103064.78;6114558;28;20548;-71
2023/11/22 08:03:02;;;;;;;8.63;3.40;;;;;;;2.84;100.00;103057.81;6113001;28;20330;-70
2023/11/22 08:06:23;;;;;;;12.03;5.00;;;;;;;2.99;100.00;103053.06;6120131;28;20235;-70
2023/11/22 08:09:44;;;;;;;4.37;3.90;;;;;;;3.08;100.00;103060.84;6118561;28;20288;-70
2023/11/22 08:13:05;;;;;;;4.13;3.83;;;;;;;3.07;100.00;103052.88;6116770;28;20303;-70
2023/11/22 08:16:27;;;;;;;4.60;4.20;;;;;;;3.16;100.00;103047.34;6111158;28;20231;-70
2023/11/22 08:19:49;;;;;;;7.17;4.13;;;;;;;3.26;100.00;103030.22;6113886;28;20610;-71
2023/11/22 08:23:13;;;;;;;3.17;2.93;;;;;;;3.31;100.00;103028.31;6112728;28;20605;-71
2023/11/22 08:26:34;;;;;;;3.60;3.30;;;;;;;3.22;100.00;103034.75;6109656;28;20594;-70
2023/11/22 08:29:56;;;;;;;3.67;2.97;;;;;;;3.14;100.00;103031.41;6110974;28;20625;-71
2023/11/22 08:33:16;;;;;;;4.13;3.77;;;;;;;2.99;100.00;103013.09;6117973;28;20256;-70
2023/11/22 08:36:38;;;;;;;4.63;3.93;;;;;;;3.08;100.00;103012.88;6113816;28;20223;-71
2023/11/22 08:39:59;;;;;;;4.77;3.83;;;;;;;3.12;100.00;103030.56;6100637;28;20243;-70
2023/11/22 08:43:22;;;;;;;3.87;3.50;;;;;;;3.29;100.00;103037.25;6113871;28;20239;-70
2023/11/22 08:46:43;;;;;;;8.47;4.63;;;;;;;3.50;100.00;103037.63;6111007;28;20244;-70
2023/11/22 08:50:06;;;;;;;4.80;4.30;;;;;;;3.59;100.00;103039.19;6123193;28;20239;-71
2023/11/22 08:53:30;;;;;;;7.60;4.20;;;;;;;3.75;100.00;103021.88;6116363;28;20247;-70
2023/11/22 08:56:50;;;;;;;6.83;4.20;;;;;;;3.77;100.00;103017.38;6110519;28;20236;-70
2023/11/22 09:00:14;;;;;;;6.47;5.53;;;;;;;3.81;100.00;103027.03;6112155;28;20507;-70
2023/11/22 09:03:36;;;;;;;9.27;5.60;;;;;;;3.83;100.00;103030.53;6108608;28;20228;-71
2023/11/22 09:06:57;;;;;;;6.10;4.57;;;;;;;3.88;100.00;103033.97;6112321;28;20779;-70
2023/11/22 09:10:21;;;;;;;10.40;6.33;;;;;;;3.98;100.00;103030.16;6109147;28;20331;-69
2023/11/22 09:13:42;;;;;;;10.30;6.73;;;;;;;3.89;100.00;103006.38;6115611;28;20610;-70
2023/11/22 09:17:05;;;;;;;8.63;7.73;;;;;;;4.25;100.00;103015.16;6108469;28;20236;-70
2023/11/22 09:20:26;;;;;;;9.17;8.27;;;;;;;4.20;100.00;103009.94;6109321;28;20232;-71
2023/11/22 09:23:48;;;;;;;6.17;5.53;;;;;;;4.29;100.00;103020.38;6109842;28;20243;-70
2023/11/22 09:27:15;;;;;;;6.03;5.43;;;;;;;4.43;100.00;103020.84;6114501;28;20248;-71
2023/11/22 09:30:38;;;;;;;7.00;4.57;;;;;;;4.18;100.00;103024.25;6108341;28;20224;-70
2023/11/22 09:33:59;;;;;;;7.77;5.23;;;;;;;4.23;100.00;103041.03;6112640;28;20248;-71
2023/11/22 09:37:20;;;;;;;7.10;4.90;;;;;;;4.35;100.00;103038.88;6116540;28;20243;-71
2023/11/22 09:40:43;;;;;;;4.70;4.30;;;;;;;4.29;100.00;103055.06;6127404;28;20703;-70
2023/11/22 09:44:06;;;;;;;6.77;4.93;;;;;;;4.49;100.00;103049.16;6111724;28;20630;-70
2023/11/22 09:47:29;;;;;;;7.33;4.17;;;;;;;4.74;100.00;103055.53;6115848;28;20690;-70
2023/11/22 09:50:55;;;;;;;5.20;4.57;;;;;;;4.75;100.00;103058.19;6112232;28;21091;-71
2023/11/22 09:54:19;;;;;;;4.93;4.50;;;;;;;4.38;100.00;103051.28;6108525;28;20251;-72
2023/11/22 09:57:40;;;;;;;7.00;5.17;;;;;;;4.70;100.00;103070.78;6109379;28;20531;-70
2023/11/22 10:01:03;;;;;;;7.53;3.50;;;;;;;4.92;100.00;103054.13;6126123;28;20231;-71
2023/11/22 10:04:28;;;;;;;4.33;3.93;;;;;;;4.77;100.00;103052.78;6107934;28;20265;-70
2023/11/22 10:07:50;;;;;;;5.00;4.13;;;;;;;4.64;100.00;103052.25;6113296;28;20522;-71
2023/11/22 10:11:10;;;;;;;4.23;3.67;;;;;;;4.67;100.00;103045.97;6109299;28;20615;-70
2023/11/22 10:14:34;;;;;;;4.13;3.70;;;;;;;4.64;100.00;103025.56;6114507;28;20670;-71
2023/11/22 10:18:00;;;;;;;4.57;3.50;;;;;;;4.71;100.00;103037.78;6111010;28;20323;-70
2023/11/22 10:21:25;;;;;;;4.40;3.50;;;;;;;4.93;100.00;103031.81;6112593;28;20227;-70
2023/11/22 10:24:46;;;;;;;3.80;3.17;;;;;;;4.98;100.00;103014.72;6122348;28;20433;-71
2023/11/22 10:28:08;;;;;;;3.07;2.87;;;;;;;4.86;100.00;103017.75;6115022;28;20718;-71
2023/11/22 10:31:29;;;;;;;3.33;3.03;;;;;;;4.91;100.00;103017.59;6110030;28;20224;-70
2023/11/22 10:34:52;;;;;;;3.17;2.87;;;;;;;4.91;100.00;103014.94;6116627;28;20240;-71
2023/11/22 10:38:15;;;;;;;6.83;3.47;;;;;;;5.01;100.00;102992.34;6112322;28;20243;-71
2023/11/22 10:41:39;;;;;;;6.37;3.73;;;;;;;5.06;100.00;102982.41;6114342;28;20224;-71
2023/11/22 10:45:03;;;;;;;5.03;3.60;;;;;;;5.24;100.00;102971.97;6115250;28;20327;-72
2023/11/22 10:48:24;;;;;;;3.97;3.07;;;;;;;5.40;100.00;102959.81;6106381;28;20232;-71
2023/11/22 10:51:52;;;;;;;11.27;3.70;;;;;;;5.12;100.00;102950.13;6116828;28;20235;-71
2023/11/22 10:55:16;;;;;;;6.30;4.43;;;;;;;5.16;100.00;102943.75;6114997;28;20231;-70
2023/11/22 10:58:41;;;;;;;7.80;3.77;;;;;;;5.30;100.00;102937.00;6113768;28;20318;-71
2023/11/22 11:02:06;;;;;;;5.77;4.93;;;;;;;5.07;100.00;102934.22;6112146;28;20255;-71
2023/11/22 11:05:30;;;;;;;4.07;3.73;;;;;;;5.12;100.00;102910.91;6115443;28;20255;-71
2023/11/22 11:08:54;;;;;;;3.97;3.60;;;;;;;5.41;100.00;102920.59;6105008;28;20326;-71
2023/11/22 11:12:15;;;;;;;6.30;3.43;;;;;;;4.82;100.00;102903.88;6107049;28;20300;-71
2023/11/22 11:15:36;;;;;;;5.63;3.10;;;;;;;5.23;100.00;102903.41;6110611;28;20320;-71
2023/11/22 11:18:57;;;;;;;3.93;3.03;;;;;;;5.28;100.00;102892.53;6113156;28;20235;-70
2023/11/22 11:22:19;;;;;;;3.30;2.50;;;;;;;5.26;100.00;102871.19;6127585;28;20330;-70
2023/11/22 11:25:42;;;;;;;3.93;2.83;;;;;;;5.04;100.00;102862.19;6119159;28;20326;-71
2023/11/22 11:29:03;;;;;;;5.17;3.77;;;;;;;5.57;100.00;102844.22;6116833;28;20240;-71
2023/11/22 11:32:32;;;;;;;3.33;3.00;;;;;;;5.64;100.00;102835.06;6108460;28;20232;-70
2023/11/22 11:35:53;;;;;;;2.17;1.97;;;;;;;5.45;100.00;102818.81;6117682;28;20239;-71
2023/11/22 11:39:15;;;;;;;3.40;2.43;;;;;;;5.93;100.00;102817.94;6116986;28;20251;-70
2023/11/22 11:42:42;;;;;;;12.50;2.57;;;;;;;5.77;100.00;102832.81;6114566;28;20260;-70
2023/11/22 11:46:08;;;;;;;2.43;2.23;;;;;;;5.89;100.00;102814.50;6118114;28;20990;-72
2023/11/22 11:49:29;;;;;;;5.83;3.70;;;;;;;6.20;100.00;102784.72;6102388;28;20236;-71
2023/11/22 11:52:50;;;;;;;3.87;3.50;;;;;;;6.69;100.00;102778.22;6116934;28;20260;-71
2023/11/22 11:56:12;;;;;;;3.57;2.57;;;;;;;6.85;100.00;102779.31;6111078;28;20236;-71
2023/11/22 11:59:35;;;;;;;3.97;3.50;;;;;;;6.84;100.00;102761.50;6116584;28;20224;-70
2023/11/22 12:02:56;;;;;;;3.60;2.30;;;;;;;6.41;100.00;102744.56;6115053;28;20248;-70
2023/11/22 12:06:18;;;;;;;2.93;2.70;;;;;;;6.11;100.00;102727.06;6115264;28;20239;-71
2023/11/22 12:09:39;;;;;;;3.90;3.10;;;;;;;5.67;100.00;102741.31;6107186;28;20239;-70
2023/11/22 12:13:00;;;;;;;3.50;2.03;;;;;;;6.00;100.00;102765.91;6114425;28;20319;-69
2023/11/22 12:16:22;;;;;;;1.63;1.40;;;;;;;5.75;100.00;102816.81;6119014;28;20740;-71
2023/11/22 12:19:43;;;;;;;3.20;2.43;;;;;;;5.28;100.00;102794.47;6114554;28;20232;-70
2023/11/22 12:23:04;;;;;;;1.50;1.40;;;;;;;5.32;100.00;102777.38;6106866;28;20236;-70
2023/11/22 12:26:25;;;;;;;3.53;1.80;;;;;;;4.76;100.00;102768.72;6108702;28;20271;-70
2023/11/22 12:29:47;;;;;;;2.50;1.70;;;;;;;4.82;100.00;102781.88;6112568;28;20847;-70
2023/11/22 12:33:13;;;;;;;1.83;1.50;;;;;;;4.98;100.00;102786.69;6119697;28;20228;-71
2023/11/22 12:36:35;;;;;;;1.77;1.57;;;;;;;4.54;100.00;102810.44;6120295;28;20231;-70
2023/11/22 12:39:56;;;;;;;1.40;1.30;;;;;;;4.42;100.00;102781.44;6113990;28;20254;-71
2023/11/22 12:43:16;;;;;;;1.50;1.40;;;;;;;4.73;100.00;102762.63;6112038;28;20236;-69
2023/11/22 12:46:46;;;;;;;2.10;1.57;;;;;;;4.79;100.00;102754.38;6113808;28;20236;-70
2023/11/22 12:50:33;;;;;;;2.20;1.83;;;;;;;4.65;100.00;102741.50;6108301;28;20633;-71
2023/11/22 12:53:56;;;;;;;2.87;1.77;;;;;;;4.83;100.00;102759.56;6111067;28;20236;-70
2023/11/22 12:57:18;;;;;;;2.17;2.07;;;;;;;4.64;100.00;102757.59;6117422;28;20242;-71
2023/11/22 13:00:39;;;;;;;2.63;1.80;;;;;;;4.63;100.00;102751.34;6110676;28;20233;-71
2023/11/22 13:04:00;;;;;;;2.83;2.10;;;;;;;4.68;100.00;102756.56;6113194;28;20259;-70
2023/11/22 13:07:23;;;;;;;2.40;1.80;;;;;;;4.69;100.00;102752.97;6117266;28;20235;-71
2023/11/22 13:10:44;;;;;;;1.93;1.40;;;;;;;4.59;100.00;102755.06;6114178;28;20315;-70
2023/11/22 13:14:06;;;;;;;1.63;0.73;;;;;;;4.44;97.57;102760.94;6121269;28;20613;-70
2023/11/22 13:17:28;;;;;;;0.90;0.90;;;;;;;4.55;93.94;102758.75;6110976;28;20239;-71
2023/11/22 13:20:50;;;;;;;0.90;0.90;;;;;;;4.53;90.56;102757.94;6115496;28;20592;-70
2023/11/22 13:24:13;;;;;;;0.80;0.70;;;;;;;4.42;85.20;102751.22;6114597;28;20231;-70
2023/11/22 13:27:36;;;;;;;1.97;0.83;;;;;;;4.36;85.86;102749.63;6102668;28;20543;-71
2023/11/22 13:30:57;;;;;;;0.70;0.70;;;;;;;4.30;85.67;102760.50;6112169;28;20220;-70
2023/11/22 13:34:18;;;;;;;3.30;1.33;;;;;;;4.36;87.30;102765.63;6115052;28;20579;-71
2023/11/22 13:37:41;;;;;;;2.37;1.47;;;;;;;4.37;88.50;102780.75;6111819;28;20604;-72
2023/11/22 13:41:03;;;;;;;2.03;1.30;;;;;;;4.40;88.41;102780.63;6101087;28;20236;-72
2023/11/22 13:44:24;;;;;;;1.30;1.20;;;;;;;4.35;83.32;102795.06;6112451;28;20232;-70
2023/11/22 13:47:47;;;;;;;1.47;1.37;;;;;;;4.42;84.88;102801.97;6110087;28;20236;-69
2023/11/22 13:51:10;;;;;;;0.87;0.83;;;;;;;4.43;83.75;102795.69;6112406;28;20235;-70
2023/11/22 13:54:32;;;;;;;0.77;0.63;;;;;;;4.39;81.37;102794.03;6113345;28;20601;-70
2023/11/22 13:57:58;;;;;;;0.90;0.90;;;;;;;4.44;80.71;102779.63;6109642;28;20227;-70
2023/11/22 14:01:21;;;;;;;1.10;1.10;;;;;;;4.37;79.92;102771.84;6116429;28;26325;-71
2023/11/22 14:04:42;;;;;;;1.30;0.93;;;;;;;4.47;80.82;102762.59;6116610;28;20625;-72
2023/11/22 14:08:04;;;;;;;0.90;0.90;;;;;;;4.39;79.29;102741.53;6105507;28;20232;-71
2023/11/22 14:11:24;;;;;;;2.20;0.90;;;;;;;4.23;78.76;102729.63;6116624;28;20350;-71
2023/11/22 14:14:51;;;;;;;0.80;0.80;;;;;;;4.22;79.16;102732.31;6115400;28;20247;-70
2023/11/22 14:18:12;;;;;;;1.97;1.07;;;;;;;4.29;80.34;102732.06;6113438;28;20594;-70
2023/11/22 14:21:34;;;;;;;2.43;1.60;;;;;;;4.25;80.63;102725.09;6102341;28;20571;-71
2023/11/22 14:24:55;;;;;;;1.07;0.93;;;;;;;4.26;81.40;102724.16;6113047;28;20231;-70
2023/11/22 14:28:16;;;;;;;6.20;1.53;;;;;;;4.30;84.47;102716.94;6111415;28;20240;-70
2023/11/22 14:31:38;;;;;;;1.00;1.00;;;;;;;4.23;82.78;102710.94;6108499;28;20230;-70
2023/11/22 14:35:01;;;;;;;1.77;1.23;;;;;;;4.22;84.08;102716.28;6120203;28;20518;-71
2023/11/22 14:38:22;;;;;;;1.83;1.30;;;;;;;4.21;85.31;102703.88;6113034;28;20236;-71
2023/11/22 14:41:45;;;;;;;2.07;1.17;;;;;;;4.24;86.34;102685.97;6112660;28;20235;-70
2023/11/22 14:45:07;;;;;;;1.80;1.50;;;;;;;4.16;89.40;102680.03;6109809;28;20236;-71
2023/11/22 14:48:30;;;;;;;1.70;1.50;;;;;;;4.07;91.02;102668.78;6116524;28;20227;-71
2023/11/22 14:51:52;;;;;;;4.27;1.67;;;;;;;4.07;93.88;102655.44;6122576;28;20243;-70
2023/11/22 14:55:13;;;;;;;3.00;2.17;;;;;;;4.03;96.95;102642.19;6106106;28;20473;-72
2023/11/22 14:58:34;;;;;;;2.03;1.50;;;;;;;4.05;100.00;102636.78;6119144;28;20620;-71
2023/11/22 15:01:56;;;;;;;3.17;1.23;;;;;;;4.10;100.00;102637.53;6113640;28;20255;-71
2023/11/22 15:05:19;;;;;;;3.57;2.23;;;;;;;4.05;100.00;102620.78;6116618;28;20236;-71
2023/11/22 15:08:39;;;;;;;3.83;2.13;;;;;;;3.79;100.00;102611.00;6128284;28;20522;-71
2023/11/22 15:12:03;;;;;;;2.00;1.70;;;;;;;3.80;100.00;102620.75;6115994;28;20307;-72
2023/11/22 15:15:25;;;;;;;3.83;2.40;;;;;;;3.82;100.00;102634.91;6121536;28;20228;-71
2023/11/22 15:18:46;;;;;;;3.17;2.20;;;;;;;3.67;100.00;102632.72;6120188;28;20263;-72
2023/11/22 15:22:09;;;;;;;4.50;2.20;;;;;;;3.83;100.00;102619.78;6118746;28;20924;-70
2023/11/22 15:25:30;;;;;;;2.00;1.80;;;;;;;3.65;100.00;102615.91;6117146;28;20239;-69
2023/11/22 15:28:51;;;;;;;1.70;1.50;;;;;;;3.61;100.00;102642.75;6115647;28;20752;-72
2023/11/22 15:32:13;;;;;;;3.60;2.00;;;;;;;3.58;100.00;102645.47;6113772;28;20323;-72
2023/11/22 15:35:35;;;;;;;3.17;1.73;;;;;;;3.58;100.00;102637.50;6110101;28;20746;-71
2023/11/22 15:38:57;;;;;;;2.50;1.83;;;;;;;3.68;100.00;102622.94;6118007;28;20240;-71
2023/11/22 15:42:18;;;;;;;2.93;2.27;;;;;;;3.60;100.00;102608.97;6116844;28;21702;-72
2023/11/22 15:45:40;;;;;;;3.77;2.93;;;;;;;3.48;100.00;102586.28;6129003;28;20236;-71